This is the latest recevied weather packets stored in our database for station/object LU2DKV-10. If no packets are shown the sender has not sent any weather packets the latest 10 day(s).
| Time | Temp. | Humidity | Pressure | Rain* | Wind** | Luminosity | Snow |
|---|---|---|---|---|---|---|---|
| 1778005401 | 21.67° C | 82% | 1012 hPa | - | - | 0 W/m² | - |
| 1778003580 | 21.67° C | 81% | 1012 hPa | - | - | 0 W/m² | - |
| 1778001757 | 21.67° C | 82% | 1013 hPa | - | - | 0 W/m² | - |
| 1777999936 | 21.67° C | 80% | 1013 hPa | - | - | 0 W/m² | - |
| 1777998114 | 21.67° C | 81% | 1013 hPa | - | - | 0 W/m² | - |
| 1777996292 | 20.56° C | 81% | 1013 hPa | - | - | 0 W/m² | - |
| 1777994470 | 20° C | 83% | 1013 hPa | - | - | 0 W/m² | - |
| 1777992647 | 18.89° C | 86% | 1014 hPa | - | - | 0 W/m² | - |
| 1777990826 | 18.33° C | 87% | 1014 hPa | - | - | 0 W/m² | - |
| 1777989004 | 18.33° C | 87% | 1014 hPa | - | - | 0 W/m² | - |
| 1777987181 | 17.78° C | 89% | 1014 hPa | - | - | 0 W/m² | - |
| 1777985359 | 17.22° C | 90% | 1014 hPa | - | - | 0 W/m² | - |
| 1777983537 | 17.22° C | 88% | 1013 hPa | - | - | 0 W/m² | - |
| 1777981715 | 16.67° C | 86% | 1013 hPa | - | - | 0 W/m² | - |
| 1777979893 | 16.11° C | 87% | 1013 hPa | - | - | 0 W/m² | - |
| 1777978071 | 16.11° C | 86% | 1012 hPa | - | - | 0 W/m² | - |
| 1777976249 | 16.11° C | 85% | 1012 hPa | - | - | 0 W/m² | - |
| 1777974427 | 15.56° C | 85% | 1012 hPa | - | - | 0 W/m² | - |
| 1777974359 | 15.56° C | 85% | 1012 hPa | - | - | 0 W/m² | - |
| 1777972537 | 15.56° C | 85% | 1012 hPa | - | - | 0 W/m² | - |
| 1777970715 | 15° C | 84% | 1012 hPa | - | - | 0 W/m² | - |
| 1777968893 | 15° C | 84% | 1012 hPa | - | - | 0 W/m² | - |
| 1777967073 | 15° C | 83% | 1011 hPa | - | - | 0 W/m² | - |
| 1777965249 | 15° C | 83% | 1011 hPa | - | - | 0 W/m² | - |
| 1777964581 | 15° C | 82% | 1011 hPa | - | - | 0 W/m² | - |
* Rain since midnight (hover to see other rain measurements)
** Current wind speed in m/s (hover to see current wind gust speed)